createdAt,value
2018-12-11T00:00:09.135Z,5.90
2018-12-11T00:02:40.693Z,7.00
2018-12-11T00:05:12.335Z,7.40
2018-12-11T00:07:42.617Z,11.43
2018-12-11T00:10:13.345Z,8.37
2018-12-11T00:12:44.870Z,8.30
2018-12-11T00:15:15.168Z,7.70
2018-12-11T00:17:45.577Z,10.73
2018-12-11T00:29:09.023Z,8.70
2018-12-11T00:37:34.735Z,13.50
2018-12-11T00:40:05.479Z,9.43
2018-12-11T00:42:35.950Z,6.93
2018-12-11T00:45:05.936Z,10.03
2018-12-11T00:47:36.387Z,6.37
2018-12-11T00:50:07.419Z,9.37
2018-12-11T00:52:38.096Z,4.17
2018-12-11T00:55:07.958Z,10.20
2018-12-11T00:57:38.272Z,6.73
2018-12-11T01:00:10.423Z,6.60
2018-12-11T01:02:40.786Z,8.90
2018-12-11T01:05:10.872Z,7.83
2018-12-11T01:07:41.300Z,8.20
2018-12-11T01:10:13.160Z,6.23
2018-12-11T01:12:43.685Z,6.90
2018-12-11T01:15:15.121Z,5.40
2018-12-11T01:17:45.868Z,4.93
2018-12-11T01:20:16.305Z,5.10
2018-12-11T01:22:45.897Z,9.00
2018-12-11T01:25:18.378Z,5.73
2018-12-11T01:27:49.551Z,8.07
2018-12-11T01:30:19.320Z,7.00
2018-12-11T01:32:50.498Z,5.80
2018-12-11T01:35:21.221Z,9.47
2018-12-11T01:37:51.561Z,7.77
2018-12-11T01:40:21.410Z,3.60
2018-12-11T01:42:52.595Z,8.10
2018-12-11T01:45:23.143Z,6.87
2018-12-11T01:47:53.779Z,7.40
2018-12-11T01:50:25.021Z,4.47
2018-12-11T01:52:55.959Z,5.60
2018-12-11T01:55:26.540Z,7.67
2018-12-11T01:57:56.089Z,9.47
2018-12-11T02:00:25.952Z,10.50
2018-12-11T02:02:56.852Z,6.70
2018-12-11T02:05:28.637Z,5.33
2018-12-11T02:07:58.449Z,7.27
2018-12-11T02:10:29.979Z,9.37
2018-12-11T02:13:00.188Z,10.03
2018-12-11T02:15:30.015Z,4.97
2018-12-11T02:18:00.729Z,5.80
2018-12-11T02:20:29.957Z,10.20
2018-12-11T02:22:59.899Z,5.63
2018-12-11T02:25:29.121Z,4.87
2018-12-11T02:27:58.455Z,10.43
2018-12-11T02:30:27.662Z,4.87
2018-12-11T02:32:56.890Z,3.97
2018-12-11T02:35:26.759Z,8.50
2018-12-11T02:37:56.694Z,4.53
2018-12-11T02:40:26.306Z,5.90
2018-12-11T02:42:55.550Z,5.60
2018-12-11T02:45:25.951Z,6.63
2018-12-11T02:47:55.232Z,5.00
2018-12-11T02:50:26.080Z,10.20
2018-12-11T02:52:55.892Z,4.93
2018-12-11T02:55:26.107Z,12.67
2018-12-11T02:57:56.004Z,6.80
2018-12-11T03:00:25.225Z,7.20
2018-12-11T03:02:55.239Z,4.83
2018-12-11T03:05:24.440Z,7.60
2018-12-11T03:07:53.739Z,4.83
2018-12-11T03:10:23.731Z,5.47
2018-12-11T03:12:54.286Z,6.33
2018-12-11T03:15:24.369Z,4.07
2018-12-11T03:17:53.894Z,6.97
2018-12-11T03:20:24.660Z,9.87
2018-12-11T03:22:53.897Z,7.87
2018-12-11T03:25:23.641Z,7.97
2018-12-11T03:27:54.141Z,6.83
2018-12-11T03:30:23.603Z,5.47
2018-12-11T03:32:53.455Z,8.20
2018-12-11T03:35:23.127Z,6.37
2018-12-11T03:37:52.743Z,9.17
2018-12-11T03:40:23.825Z,5.20
2018-12-11T03:42:55.356Z,5.50
2018-12-11T03:45:26.098Z,5.77
2018-12-11T03:47:56.183Z,8.73
2018-12-11T03:50:25.364Z,5.17
2018-12-11T03:52:55.655Z,10.03
2018-12-11T03:55:25.628Z,4.33
2018-12-11T03:57:55.570Z,7.80
2018-12-11T04:00:24.836Z,7.90
2018-12-11T04:02:54.751Z,4.50
2018-12-11T04:05:24.554Z,8.60
2018-12-11T04:07:53.762Z,6.77
2018-12-11T04:10:24.299Z,6.90
2018-12-11T04:12:54.212Z,5.37
2018-12-11T04:15:23.513Z,6.17
2018-12-11T04:17:53.939Z,7.00
2018-12-11T04:20:24.758Z,4.50
2018-12-11T04:22:54.796Z,5.60
2018-12-11T04:25:30.402Z,9.13
2018-12-11T04:27:59.947Z,4.40
2018-12-11T04:30:29.277Z,10.63
2018-12-11T04:33:00.292Z,8.97
2018-12-11T04:35:30.309Z,5.27
2018-12-11T04:37:59.613Z,6.33
2018-12-11T04:40:29.924Z,4.10
2018-12-11T04:42:59.864Z,5.53
2018-12-11T04:45:29.761Z,4.03
2018-12-11T04:47:59.075Z,9.53
2018-12-11T04:50:28.335Z,3.90
2018-12-11T04:52:57.597Z,3.00
2018-12-11T04:55:27.308Z,3.13
2018-12-11T04:57:56.596Z,4.13
2018-12-11T05:00:26.803Z,3.80
2018-12-11T05:02:57.033Z,7.00
2018-12-11T05:05:26.842Z,4.37
2018-12-11T05:07:56.065Z,5.63
2018-12-11T05:10:27.446Z,4.33
2018-12-11T05:12:57.203Z,9.03
2018-12-11T05:15:27.144Z,8.33
2018-12-11T05:17:56.960Z,7.37
2018-12-11T05:20:27.460Z,5.87
2018-12-11T05:22:56.777Z,3.57
2018-12-11T05:25:26.933Z,3.47
2018-12-11T05:27:56.204Z,4.33
2018-12-11T05:30:26.293Z,3.97
2018-12-11T05:32:55.510Z,2.63
2018-12-11T05:35:25.172Z,2.93
2018-12-11T05:37:54.944Z,8.23
2018-12-11T05:40:25.783Z,6.50
2018-12-11T05:42:56.394Z,5.70
2018-12-11T05:45:25.717Z,7.10
2018-12-11T05:47:55.108Z,5.43
2018-12-11T05:50:25.914Z,10.80
2018-12-11T05:52:55.238Z,9.70
2018-12-11T05:55:24.473Z,4.47
2018-12-11T05:57:53.726Z,6.27
2018-12-11T06:00:27.223Z,7.53
2018-12-11T06:02:56.560Z,5.63
2018-12-11T06:05:25.880Z,5.73
2018-12-11T06:07:55.810Z,3.17
2018-12-11T06:10:25.347Z,5.97
2018-12-11T06:12:54.643Z,12.07
2018-12-11T06:15:24.580Z,14.70
2018-12-11T06:17:55.988Z,5.03
2018-12-11T06:20:25.288Z,3.00
2018-12-11T06:22:54.499Z,3.33
2018-12-11T06:25:24.435Z,7.50
2018-12-11T06:27:57.575Z,5.23
2018-12-11T06:30:28.590Z,6.00
2018-12-11T06:32:57.982Z,3.20
2018-12-11T06:35:29.030Z,5.40
2018-12-11T06:38:00.148Z,6.13
2018-12-11T06:40:31.997Z,2.73
2018-12-11T06:43:03.096Z,4.60
2018-12-11T06:45:33.945Z,2.80
2018-12-11T06:48:04.306Z,3.57
2018-12-11T06:50:33.640Z,4.60
2018-12-11T06:53:04.515Z,5.13
2018-12-11T06:55:35.318Z,4.37
2018-12-11T06:58:05.263Z,5.73
2018-12-11T07:00:36.786Z,8.87
2018-12-11T07:03:07.420Z,4.00
2018-12-11T07:05:37.419Z,8.37
2018-12-11T07:08:07.278Z,7.33
2018-12-11T07:10:38.020Z,7.73
2018-12-11T07:13:08.685Z,3.57
2018-12-11T07:15:39.498Z,3.93
2018-12-11T07:18:10.188Z,8.43
2018-12-11T07:20:40.745Z,8.17
2018-12-11T07:23:10.573Z,5.83
2018-12-11T07:25:40.307Z,5.53
2018-12-11T07:28:11.452Z,6.27
2018-12-11T07:30:41.434Z,8.83
2018-12-11T07:33:12.086Z,8.27
2018-12-11T07:35:43.032Z,8.33
2018-12-11T07:38:13.278Z,4.10
2018-12-11T07:40:44.141Z,4.60
2018-12-11T07:43:14.649Z,4.13
2018-12-11T07:45:44.484Z,5.43
2018-12-11T07:48:14.298Z,15.20
2018-12-11T07:50:44.154Z,7.83
2018-12-11T07:53:13.927Z,6.23
2018-12-11T07:55:43.246Z,4.20
2018-12-11T07:58:13.748Z,7.73
2018-12-11T08:00:44.130Z,5.73
2018-12-11T08:03:13.940Z,6.33
2018-12-11T08:05:44.231Z,6.43
2018-12-11T08:08:17.498Z,2.90
2018-12-11T08:10:47.091Z,4.67
2018-12-11T08:13:18.198Z,6.97
2018-12-11T08:15:49.664Z,10.50
2018-12-11T08:18:19.222Z,4.50
2018-12-11T08:20:49.750Z,9.77
2018-12-11T08:23:20.309Z,4.70
2018-12-11T08:25:50.362Z,6.97
2018-12-11T08:28:20.826Z,4.47
2018-12-11T08:30:52.075Z,4.90
2018-12-11T08:33:21.693Z,6.00
2018-12-11T08:35:51.598Z,5.13
2018-12-11T08:38:23.322Z,5.57
2018-12-11T08:40:53.463Z,5.30
2018-12-11T08:43:23.407Z,7.37
2018-12-11T08:45:53.657Z,4.63
2018-12-11T08:48:22.918Z,6.17
2018-12-11T08:50:52.537Z,4.13
2018-12-11T08:53:23.597Z,10.47
2018-12-11T08:55:54.548Z,7.43
2018-12-11T08:58:25.777Z,4.33
2018-12-11T09:00:56.461Z,7.50
2018-12-11T09:03:27.160Z,8.27
2018-12-11T09:05:56.804Z,2.87
2018-12-11T09:08:26.778Z,5.90
2018-12-11T09:10:56.712Z,11.07
2018-12-11T09:13:27.298Z,7.17
2018-12-11T09:15:56.567Z,4.53
2018-12-11T09:18:28.041Z,5.53
2018-12-11T09:20:57.360Z,6.30
2018-12-11T09:23:32.788Z,4.63
2018-12-11T09:26:02.134Z,6.40
2018-12-11T09:28:32.005Z,12.07
2018-12-11T09:31:01.734Z,5.07
2018-12-11T09:33:31.541Z,5.77
2018-12-11T09:36:02.541Z,7.97
2018-12-11T09:38:33.844Z,8.73
2018-12-11T09:41:03.791Z,10.33
2018-12-11T09:43:33.336Z,5.03
2018-12-11T09:46:03.737Z,5.20
2018-12-11T09:48:34.241Z,9.43
2018-12-11T09:51:05.350Z,9.90
2018-12-11T09:53:35.606Z,5.10
2018-12-11T09:56:05.838Z,4.57
2018-12-11T09:58:35.092Z,11.17
2018-12-11T10:01:05.190Z,8.77
2018-12-11T10:03:34.530Z,8.67
2018-12-11T10:06:04.469Z,5.60
2018-12-11T10:08:35.150Z,6.43
2018-12-11T10:11:05.561Z,9.23
2018-12-11T10:13:35.001Z,10.03
2018-12-11T10:16:05.220Z,6.60
2018-12-11T10:18:35.319Z,5.77
2018-12-11T10:21:07.049Z,9.17
2018-12-11T10:23:40.088Z,9.33
2018-12-11T10:26:09.597Z,7.13
2018-12-11T10:28:39.957Z,7.53
2018-12-11T10:31:09.365Z,10.40
2018-12-11T10:33:41.008Z,9.13
2018-12-11T10:36:11.296Z,6.67
2018-12-11T10:38:42.349Z,6.67
2018-12-11T10:41:12.579Z,8.13
2018-12-11T10:43:43.807Z,7.03
2018-12-11T10:46:15.272Z,7.27
2018-12-11T10:48:47.032Z,5.03
2018-12-11T10:51:18.994Z,7.30
2018-12-11T10:53:50.124Z,4.97
2018-12-11T10:56:20.774Z,4.17
2018-12-11T10:58:50.812Z,6.67
2018-12-11T11:01:25.334Z,7.10
2018-12-11T11:03:55.132Z,7.27
2018-12-11T11:06:25.680Z,6.90
2018-12-11T11:08:55.574Z,9.07
2018-12-11T11:11:26.591Z,12.33
2018-12-11T11:13:58.725Z,9.13
2018-12-11T11:16:29.141Z,5.93
2018-12-11T11:18:58.359Z,5.40
2018-12-11T11:21:27.632Z,6.33
2018-12-11T11:23:58.214Z,6.43
2018-12-11T11:26:27.480Z,6.60
2018-12-11T11:28:58.382Z,6.00
2018-12-11T11:31:28.396Z,9.37
2018-12-11T11:34:01.342Z,13.03
2018-12-11T11:36:31.052Z,8.80
2018-12-11T11:39:02.083Z,8.67
2018-12-11T11:41:34.074Z,11.40
2018-12-11T11:44:03.865Z,15.57
2018-12-11T11:46:35.060Z,10.57
2018-12-11T11:49:04.637Z,10.67
2018-12-11T11:51:36.320Z,9.23
2018-12-11T11:54:07.388Z,8.90
2018-12-11T11:56:37.965Z,9.50
2018-12-11T11:59:12.303Z,11.93
2018-12-11T12:01:43.154Z,7.93
2018-12-11T12:04:13.415Z,12.80
2018-12-11T12:06:44.123Z,7.60
2018-12-11T12:09:17.203Z,7.53
2018-12-11T12:11:51.655Z,7.47
2018-12-11T12:14:25.748Z,8.03
2018-12-11T12:16:55.457Z,6.70
2018-12-11T12:19:24.752Z,15.43
2018-12-11T12:21:54.727Z,8.07
2018-12-11T12:24:23.968Z,5.93
2018-12-11T12:26:56.476Z,9.67
2018-12-11T12:29:26.994Z,5.63
2018-12-11T12:31:58.738Z,9.23
2018-12-11T12:34:28.855Z,13.23
2018-12-11T12:36:59.446Z,7.57
2018-12-11T12:39:30.530Z,13.03
2018-12-11T12:42:01.115Z,9.13
2018-12-11T12:44:31.536Z,10.67
2018-12-11T12:47:01.780Z,6.40
2018-12-11T12:49:31.749Z,8.37
2018-12-11T12:52:01.125Z,15.10
2018-12-11T12:54:31.475Z,9.43
2018-12-11T12:57:00.709Z,9.90
2018-12-11T12:59:29.941Z,8.80
2018-12-11T13:02:01.182Z,8.33
2018-12-11T13:04:31.106Z,6.50
2018-12-11T13:07:01.546Z,8.53
2018-12-11T13:09:32.138Z,12.73
2018-12-11T13:12:03.463Z,10.23
2018-12-11T13:14:36.870Z,10.07
2018-12-11T13:17:07.044Z,6.03
2018-12-11T13:19:37.663Z,10.80
2018-12-11T13:22:07.724Z,7.77
2018-12-11T13:24:37.949Z,11.70
2018-12-11T13:27:09.879Z,8.43
2018-12-11T13:29:40.033Z,6.37
2018-12-11T13:32:10.324Z,11.20
2018-12-11T13:34:41.101Z,7.50
2018-12-11T13:37:12.816Z,7.40
2018-12-11T13:39:43.499Z,8.90
2018-12-11T13:42:13.580Z,7.93
2018-12-11T13:44:45.090Z,9.10
2018-12-11T13:47:14.556Z,9.60
2018-12-11T13:49:44.650Z,10.60
2018-12-11T13:52:14.700Z,7.00
2018-12-11T13:54:44.891Z,7.90
2018-12-11T13:57:15.995Z,7.73
2018-12-11T13:59:46.340Z,9.90
2018-12-11T14:02:16.788Z,8.00
2018-12-11T14:04:47.120Z,4.30
2018-12-11T14:07:17.939Z,7.87
2018-12-11T14:09:49.060Z,6.93
2018-12-11T14:12:19.268Z,12.17
2018-12-11T14:14:49.010Z,8.43
2018-12-11T14:17:19.598Z,8.03
2018-12-11T14:19:56.455Z,6.70
2018-12-11T14:22:27.413Z,6.93
2018-12-11T14:24:57.236Z,7.60
2018-12-11T14:27:27.123Z,9.97
2018-12-11T14:29:58.405Z,6.97
2018-12-11T14:32:29.908Z,11.20
2018-12-11T14:34:59.215Z,8.87
2018-12-11T14:37:29.948Z,9.40
2018-12-11T14:40:01.079Z,6.93
2018-12-11T14:42:31.515Z,9.83
2018-12-11T14:45:01.750Z,8.10
2018-12-11T14:47:32.187Z,5.90
2018-12-11T14:50:04.280Z,6.47
2018-12-11T14:52:35.312Z,6.70
2018-12-11T14:55:05.259Z,7.17
2018-12-11T14:57:35.319Z,8.70
2018-12-11T15:00:06.251Z,7.60
2018-12-11T15:02:35.787Z,8.67
2018-12-11T15:05:05.679Z,7.10
2018-12-11T15:07:36.149Z,5.27
2018-12-11T15:10:08.002Z,6.57
2018-12-11T15:12:39.180Z,7.13
2018-12-11T15:15:10.578Z,5.43
2018-12-11T15:17:39.892Z,11.57
2018-12-11T15:20:11.434Z,8.00
2018-12-11T15:22:41.898Z,7.33
2018-12-11T15:25:11.868Z,5.57
2018-12-11T15:27:41.989Z,9.03
2018-12-11T15:30:12.271Z,6.63
2018-12-11T15:32:42.059Z,10.67
2018-12-11T15:35:12.040Z,9.60
2018-12-11T15:37:42.265Z,9.80
2018-12-11T15:40:13.129Z,8.73
2018-12-11T15:42:42.748Z,6.70
2018-12-11T15:45:12.957Z,9.10
2018-12-11T15:47:42.432Z,10.50
2018-12-11T15:50:12.309Z,15.10
2018-12-11T15:52:42.947Z,10.10
2018-12-11T15:55:12.221Z,7.10
2018-12-11T15:57:43.527Z,10.93
2018-12-11T16:00:14.270Z,7.13
2018-12-11T16:02:44.851Z,10.90
2018-12-11T16:05:14.733Z,11.83
2018-12-11T16:07:44.710Z,9.27
2018-12-11T16:10:15.360Z,9.27
2018-12-11T16:12:45.503Z,20.10
2018-12-11T16:15:15.523Z,9.37
2018-12-11T16:17:46.156Z,11.03
2018-12-11T16:20:16.519Z,10.67
2018-12-11T16:22:48.695Z,10.13
2018-12-11T16:25:18.960Z,14.00
2018-12-11T16:27:49.605Z,8.40
2018-12-11T16:30:19.332Z,10.23
2018-12-11T16:32:50.083Z,12.20
2018-12-11T16:35:19.481Z,12.53
2018-12-11T16:37:50.886Z,9.70
2018-12-11T16:40:20.856Z,11.00
2018-12-11T16:42:51.922Z,8.63
2018-12-11T16:45:21.932Z,8.83
2018-12-11T16:47:52.388Z,7.70
2018-12-11T16:50:22.656Z,9.93
2018-12-11T16:52:52.379Z,9.67
2018-12-11T16:55:22.242Z,10.83
2018-12-11T16:57:52.883Z,7.87
2018-12-11T17:00:24.204Z,11.00
2018-12-11T17:02:54.919Z,9.13
2018-12-11T17:05:24.586Z,11.47
2018-12-11T17:07:55.562Z,12.80
2018-12-11T17:10:32.070Z,9.33
2018-12-11T17:13:02.400Z,9.03
2018-12-11T17:15:33.637Z,10.67
2018-12-11T17:18:03.902Z,11.30
2018-12-11T17:20:34.376Z,11.07
2018-12-11T17:23:03.992Z,13.13
2018-12-11T17:25:33.909Z,9.30
2018-12-11T17:28:03.944Z,19.03
2018-12-11T17:30:34.642Z,15.63
2018-12-11T17:33:05.215Z,13.60
2018-12-11T17:35:35.254Z,9.03
2018-12-11T17:38:05.853Z,12.90
2018-12-11T17:40:36.404Z,15.47
2018-12-11T17:43:06.634Z,8.50
2018-12-11T17:45:37.497Z,10.07
2018-12-11T17:48:09.119Z,8.50
2018-12-11T17:50:41.383Z,14.03
2018-12-11T17:53:11.705Z,10.93
2018-12-11T17:55:41.556Z,19.13
2018-12-11T17:58:12.507Z,14.13
2018-12-11T18:00:42.910Z,10.13
2018-12-11T18:03:12.135Z,9.97
2018-12-11T18:05:42.003Z,12.97
2018-12-11T18:08:12.322Z,14.97
2018-12-11T18:10:43.244Z,13.17
2018-12-11T18:13:13.178Z,11.43
2018-12-11T18:15:43.666Z,10.67
2018-12-11T18:18:14.158Z,12.97
2018-12-11T18:20:44.565Z,13.00
2018-12-11T18:23:14.058Z,10.50
2018-12-11T18:25:43.650Z,15.33
2018-12-11T18:28:14.602Z,15.23
2018-12-11T18:30:44.491Z,15.97
2018-12-11T18:33:14.843Z,15.00
2018-12-11T18:35:45.450Z,8.77
2018-12-11T18:38:15.637Z,18.03
2018-12-11T18:40:47.624Z,18.00
2018-12-11T18:43:18.291Z,18.70
2018-12-11T18:45:57.233Z,10.37
2018-12-11T18:48:29.725Z,13.10
2018-12-11T18:50:59.725Z,12.47
2018-12-11T18:53:29.051Z,14.23
2018-12-11T18:56:06.482Z,19.10
2018-12-11T18:58:37.319Z,14.73
2018-12-11T19:01:11.493Z,13.77
2018-12-11T19:06:04.339Z,12.00
2018-12-11T19:08:35.250Z,13.90
2018-12-11T19:11:05.014Z,15.20
2018-12-11T19:13:37.042Z,13.70
2018-12-11T19:16:06.815Z,10.00
2018-12-11T19:18:36.689Z,8.33
2018-12-11T19:21:07.140Z,16.87
2018-12-11T19:23:48.268Z,12.60
2018-12-11T19:26:17.767Z,13.30
2018-12-11T19:28:47.578Z,16.83
2018-12-11T19:31:17.938Z,16.13
2018-12-11T19:33:48.937Z,10.10
2018-12-11T19:36:18.714Z,13.00
2018-12-11T19:38:51.390Z,10.43
2018-12-11T19:41:21.903Z,10.40
2018-12-11T19:43:51.819Z,15.63
2018-12-11T19:46:21.101Z,12.97
2018-12-11T19:48:51.640Z,18.30
2018-12-11T19:51:22.778Z,10.10
2018-12-11T19:53:54.683Z,10.10
2018-12-11T19:56:24.304Z,13.40
2018-12-11T19:58:54.896Z,13.60
2018-12-11T20:01:25.448Z,26.17
2018-12-11T20:03:55.072Z,42.03
2018-12-11T20:06:25.716Z,15.03
2018-12-11T20:08:54.958Z,10.80
2018-12-11T20:11:24.536Z,11.27
2018-12-11T20:13:54.701Z,11.23
2018-12-11T20:16:25.147Z,16.03
2018-12-11T20:18:54.866Z,13.03
2018-12-11T20:24:05.769Z,10.33
2018-12-11T20:26:39.371Z,10.40
2018-12-11T20:29:09.697Z,18.07
2018-12-11T20:31:40.462Z,12.70
2018-12-11T20:34:09.795Z,11.33
2018-12-11T20:36:40.023Z,16.03
2018-12-11T20:39:09.738Z,15.23
2018-12-11T20:41:41.700Z,13.20
2018-12-11T20:44:11.349Z,17.93
2018-12-11T20:46:42.427Z,11.30
2018-12-11T20:49:12.343Z,16.03
2018-12-11T20:51:43.398Z,15.97
2018-12-11T20:54:13.009Z,13.80
2018-12-11T20:56:43.026Z,15.73
2018-12-11T20:59:13.071Z,15.57
2018-12-11T21:01:42.961Z,16.73
2018-12-11T21:04:13.653Z,16.53
2018-12-11T21:06:43.224Z,10.73
2018-12-11T21:09:17.497Z,10.47
2018-12-11T21:11:48.359Z,21.30
2018-12-11T21:14:17.862Z,13.23
2018-12-11T21:16:49.825Z,13.13
2018-12-11T21:19:20.193Z,12.97
2018-12-11T21:21:51.197Z,12.93
2018-12-11T21:24:21.152Z,15.10
2018-12-11T21:26:50.752Z,13.63
2018-12-11T21:29:20.531Z,12.70
2018-12-11T21:31:49.855Z,15.50
2018-12-11T21:34:20.362Z,15.37
2018-12-11T21:36:50.205Z,11.07
2018-12-11T21:39:20.623Z,13.03
2018-12-11T21:41:50.428Z,13.47
2018-12-11T21:44:20.196Z,13.83
2018-12-11T21:46:50.256Z,12.37
2018-12-11T21:49:19.789Z,12.63
2018-12-11T21:51:49.830Z,12.27
2018-12-11T21:54:19.587Z,13.53
2018-12-11T21:56:49.133Z,13.27
2018-12-11T21:59:18.904Z,19.33
2018-12-11T22:01:49.146Z,21.27
2018-12-11T22:04:20.265Z,11.20
2018-12-11T22:06:50.660Z,12.20
2018-12-11T22:09:20.955Z,11.97
2018-12-11T22:11:50.602Z,10.17
2018-12-11T22:14:21.156Z,12.70
2018-12-11T22:16:50.633Z,13.23
2018-12-11T22:19:20.216Z,14.07
2018-12-11T22:21:50.758Z,17.93
2018-12-11T22:24:21.011Z,12.43
2018-12-11T22:26:51.688Z,16.60
2018-12-11T22:29:20.919Z,16.93
2018-12-11T22:31:50.794Z,11.10
2018-12-11T22:34:21.435Z,8.80
2018-12-11T22:36:51.044Z,10.90
2018-12-11T22:39:20.731Z,12.80
2018-12-11T22:41:50.030Z,14.20
2018-12-11T22:44:19.972Z,10.27
2018-12-11T22:46:49.237Z,13.57
2018-12-11T22:49:19.397Z,15.00
2018-12-11T22:51:50.210Z,14.27
2018-12-11T22:54:19.803Z,10.90
2018-12-11T22:56:50.770Z,9.73
2018-12-11T22:59:20.335Z,14.07
2018-12-11T23:01:49.632Z,12.00
2018-12-11T23:04:20.767Z,11.60
2018-12-11T23:06:50.537Z,13.33
2018-12-11T23:09:20.569Z,13.63
2018-12-11T23:11:50.727Z,11.60
2018-12-11T23:14:20.597Z,12.73
2018-12-11T23:16:50.992Z,15.20
2018-12-11T23:19:20.279Z,10.90
2018-12-11T23:21:49.468Z,12.70
2018-12-11T23:24:18.734Z,12.63
2018-12-11T23:26:52.350Z,8.43
2018-12-11T23:29:21.628Z,14.23
2018-12-11T23:31:51.172Z,15.37
2018-12-11T23:34:20.792Z,10.53
2018-12-11T23:36:50.185Z,13.73
2018-12-11T23:39:19.624Z,9.77
2018-12-11T23:41:48.863Z,13.37
2018-12-11T23:44:19.164Z,10.57
2018-12-11T23:46:49.547Z,13.57
2018-12-11T23:49:19.562Z,15.00
2018-12-11T23:51:48.854Z,10.93
2018-12-11T23:54:18.677Z,11.17
2018-12-11T23:56:48.532Z,10.80
2018-12-11T23:59:18.118Z,19.10
